createdAt,value
2023-02-12T00:00:00.013Z,7.37
2023-02-12T00:01:03.491Z,7.41
2023-02-12T00:02:06.627Z,7.38
2023-02-12T00:03:09.900Z,7.36
2023-02-12T00:04:12.977Z,7.37
2023-02-12T00:05:16.945Z,7.33
2023-02-12T00:06:20.181Z,7.33
2023-02-12T00:07:23.300Z,7.38
2023-02-12T00:08:26.422Z,7.35
2023-02-12T00:09:29.543Z,7.37
2023-02-12T00:10:32.664Z,7.38
2023-02-12T00:11:35.787Z,7.40
2023-02-12T00:12:39.027Z,7.35
2023-02-12T00:13:42.513Z,7.29
2023-02-12T00:14:45.631Z,7.27
2023-02-12T00:15:48.908Z,7.26
2023-02-12T00:16:52.116Z,7.20
2023-02-12T00:17:55.356Z,7.21
2023-02-12T00:18:59.801Z,7.24
2023-02-12T00:20:03.400Z,7.20
2023-02-12T00:21:09.160Z,7.20
2023-02-12T00:22:12.403Z,7.19
2023-02-12T00:23:15.766Z,7.15
2023-02-12T00:24:18.887Z,7.13
2023-02-12T00:25:22.495Z,7.17
2023-02-12T00:26:25.992Z,7.19
2023-02-12T00:27:29.331Z,7.22
2023-02-12T00:28:32.617Z,7.22
2023-02-12T00:29:35.815Z,7.23
2023-02-12T00:30:42.332Z,7.23
2023-02-12T00:31:45.481Z,7.21
2023-02-12T00:32:48.541Z,7.18
2023-02-12T00:33:51.427Z,7.11
2023-02-12T00:34:54.799Z,7.12
2023-02-12T00:35:58.386Z,7.21
2023-02-12T00:37:01.268Z,7.19
2023-02-12T00:38:04.029Z,7.17
2023-02-12T00:39:06.683Z,7.16
2023-02-12T00:40:10.034Z,7.16
2023-02-12T00:41:14.472Z,7.13
2023-02-12T00:42:17.046Z,7.13
2023-02-12T00:43:20.054Z,7.12
2023-02-12T00:44:22.809Z,7.16
2023-02-12T00:45:25.329Z,7.18
2023-02-12T00:46:27.986Z,7.21
2023-02-12T00:47:30.612Z,7.11
2023-02-12T00:48:34.168Z,7.10
2023-02-12T00:49:36.693Z,7.15
2023-02-12T00:50:41.291Z,7.10
2023-02-12T00:51:43.902Z,7.17
2023-02-12T00:52:46.456Z,7.15
2023-02-12T00:53:49.178Z,7.15
2023-02-12T00:54:51.697Z,7.12
2023-02-12T00:55:54.740Z,7.13
2023-02-12T00:56:57.992Z,7.07
2023-02-12T00:58:04.817Z,7.12
2023-02-12T00:59:07.939Z,7.15
2023-02-12T01:00:12.110Z,7.15
2023-02-12T01:01:15.162Z,7.16
2023-02-12T01:02:18.286Z,7.17
2023-02-12T01:03:22.583Z,7.16
2023-02-12T01:04:25.194Z,7.13
2023-02-12T01:05:28.049Z,7.12
2023-02-12T01:06:30.514Z,7.06
2023-02-12T01:07:33.142Z,7.12
2023-02-12T01:08:35.904Z,7.10
2023-02-12T01:09:38.646Z,7.07
2023-02-12T01:10:42.991Z,7.02
2023-02-12T01:11:45.886Z,7.01
2023-02-12T01:12:49.236Z,7.01
2023-02-12T01:13:51.884Z,7.05
2023-02-12T01:14:54.511Z,7.04
2023-02-12T01:16:18.342Z,7.08
2023-02-12T01:17:20.912Z,7.04
2023-02-12T01:18:23.432Z,7.11
2023-02-12T01:19:26.316Z,7.15
2023-02-12T01:20:29.073Z,7.12
2023-02-12T01:21:34.358Z,7.09
2023-02-12T01:22:37.963Z,7.15
2023-02-12T01:23:41.564Z,7.11
2023-02-12T01:24:44.101Z,7.15
2023-02-12T01:25:46.980Z,7.15
2023-02-12T01:26:49.481Z,7.17
2023-02-12T01:27:54.164Z,7.21
2023-02-12T01:29:03.643Z,7.26
2023-02-12T01:30:08.570Z,7.24
2023-02-12T01:31:13.364Z,7.20
2023-02-12T01:32:16.029Z,7.15
2023-02-12T01:33:18.526Z,7.12
2023-02-12T01:34:21.067Z,7.20
2023-02-12T01:35:23.573Z,7.30
2023-02-12T01:36:27.538Z,7.32
2023-02-12T01:37:30.056Z,7.23
2023-02-12T01:38:32.812Z,7.26
2023-02-12T01:39:35.942Z,7.25
2023-02-12T01:40:38.695Z,7.26
2023-02-12T01:41:44.459Z,7.28
2023-02-12T01:42:47.585Z,7.17
2023-02-12T01:44:30.787Z,7.28
2023-02-12T01:45:45.568Z,7.21
2023-02-12T01:46:50.540Z,7.15
2023-02-12T01:47:53.598Z,7.13
2023-02-12T01:48:56.111Z,7.21
2023-02-12T01:49:58.885Z,7.19
2023-02-12T01:51:03.917Z,7.24
2023-02-12T01:52:09.080Z,7.21
2023-02-12T01:53:13.517Z,7.10
2023-02-12T01:54:20.121Z,7.18
2023-02-12T01:55:23.003Z,7.17
2023-02-12T01:56:26.012Z,7.16
2023-02-12T01:57:32.364Z,7.12
2023-02-12T01:58:39.687Z,7.21
2023-02-12T01:59:48.690Z,7.11
2023-02-12T02:00:51.809Z,7.13
2023-02-12T02:01:55.594Z,7.17
2023-02-12T02:03:02.464Z,7.24
2023-02-12T02:04:13.547Z,7.26
2023-02-12T02:05:44.377Z,7.26
2023-02-12T02:07:08.980Z,7.26
2023-02-12T02:08:13.302Z,7.13
2023-02-12T02:09:17.752Z,7.20
2023-02-12T02:10:20.984Z,7.17
2023-02-12T02:11:42.601Z,7.22
2023-02-12T02:13:04.188Z,7.22
2023-02-12T02:14:26.272Z,7.17
2023-02-12T02:15:32.281Z,7.20
2023-02-12T02:16:36.955Z,7.20
2023-02-12T02:18:10.321Z,7.26
2023-02-12T02:19:31.798Z,7.13
2023-02-12T02:21:20.524Z,7.24
2023-02-12T02:22:49.687Z,7.27
2023-02-12T02:24:14.173Z,7.27
2023-02-12T02:26:05.649Z,7.24
2023-02-12T02:27:16.451Z,7.21
2023-02-12T02:29:27.136Z,7.28
2023-02-12T02:30:46.471Z,7.28
2023-02-12T02:32:07.147Z,7.26
2023-02-12T02:33:38.068Z,7.31
2023-02-12T02:34:50.310Z,7.31
2023-02-12T02:36:05.786Z,7.29
2023-02-12T02:37:19.945Z,7.23
2023-02-12T02:38:48.508Z,7.27
2023-02-12T02:40:12.158Z,7.25
2023-02-12T02:41:30.769Z,7.29
2023-02-12T02:42:58.781Z,7.28
2023-02-12T02:44:08.129Z,7.29
2023-02-12T02:45:16.249Z,7.29
2023-02-12T02:46:36.634Z,7.30
2023-02-12T02:48:05.128Z,7.26
2023-02-12T02:49:13.843Z,7.24
2023-02-12T02:50:21.209Z,7.25
2023-02-12T02:51:32.261Z,7.25
2023-02-12T02:52:57.690Z,7.25
2023-02-12T02:54:09.574Z,7.30
2023-02-12T02:55:15.694Z,7.21
2023-02-12T02:56:22.255Z,7.32
2023-02-12T02:57:38.862Z,7.30
2023-02-12T02:58:57.458Z,7.28
2023-02-12T03:00:14.355Z,7.26
2023-02-12T03:01:26.048Z,7.27
2023-02-12T03:02:33.460Z,7.19
2023-02-12T03:03:45.584Z,7.26
2023-02-12T03:05:16.273Z,7.25
2023-02-12T03:06:32.864Z,7.24
2023-02-12T03:07:41.473Z,7.22
2023-02-12T03:08:51.347Z,7.23
2023-02-12T03:09:56.718Z,7.31
2023-02-12T03:11:16.094Z,7.30
2023-02-12T03:12:50.867Z,7.31
2023-02-12T03:14:02.985Z,7.35
2023-02-12T03:15:17.504Z,7.39
2023-02-12T03:16:29.811Z,7.47
2023-02-12T03:17:39.468Z,7.37
2023-02-12T03:19:10.322Z,7.31
2023-02-12T03:20:22.318Z,7.38
2023-02-12T03:21:48.711Z,7.38
2023-02-12T03:23:14.033Z,7.34
2023-02-12T03:24:26.876Z,7.35
2023-02-12T03:25:35.776Z,7.40
2023-02-12T03:26:46.919Z,7.44
2023-02-12T03:27:59.678Z,7.40
2023-02-12T03:29:02.285Z,7.45
2023-02-12T03:30:07.199Z,7.49
2023-02-12T03:31:31.147Z,7.47
2023-02-12T03:32:44.881Z,7.48
2023-02-12T03:34:34.687Z,7.47
2023-02-12T03:35:55.969Z,7.47
2023-02-12T03:37:03.745Z,7.46
2023-02-12T03:38:17.894Z,7.46
2023-02-12T03:39:35.418Z,7.46
2023-02-12T03:40:42.622Z,7.44
2023-02-12T03:41:56.894Z,7.38
2023-02-12T03:43:02.189Z,7.36
2023-02-12T03:44:18.619Z,7.39
2023-02-12T03:45:39.047Z,7.38
2023-02-12T03:46:51.022Z,7.35
2023-02-12T03:48:08.685Z,7.40
2023-02-12T03:49:20.429Z,7.39
2023-02-12T03:50:53.912Z,7.39
2023-02-12T03:51:58.474Z,7.36
2023-02-12T03:53:01.235Z,7.29
2023-02-12T03:54:06.991Z,7.37
2023-02-12T03:55:10.480Z,7.39
2023-02-12T03:56:19.720Z,7.40
2023-02-12T03:57:30.803Z,7.41
2023-02-12T03:58:35.801Z,7.39
2023-02-12T03:59:40.012Z,7.39
2023-02-12T04:00:43.554Z,7.39
2023-02-12T04:01:48.218Z,7.33
2023-02-12T04:02:52.971Z,7.35
2023-02-12T04:03:56.615Z,7.37
2023-02-12T04:05:06.050Z,7.46
2023-02-12T04:06:24.293Z,7.41
2023-02-12T04:07:27.410Z,7.35
2023-02-12T04:08:32.332Z,7.30
2023-02-12T04:09:35.453Z,7.29
2023-02-12T04:10:38.695Z,7.28
2023-02-12T04:12:09.547Z,7.33
2023-02-12T04:13:34.386Z,7.42
2023-02-12T04:14:52.260Z,7.47
2023-02-12T04:16:35.755Z,7.48
2023-02-12T04:18:21.067Z,7.38
2023-02-12T04:19:49.149Z,7.40
2023-02-12T04:20:59.475Z,7.37
2023-02-12T04:22:02.592Z,7.29
2023-02-12T04:23:43.040Z,7.43
2023-02-12T04:25:09.204Z,7.33
2023-02-12T04:26:24.094Z,7.30
2023-02-12T04:27:38.481Z,7.32
2023-02-12T04:28:57.929Z,7.41
2023-02-12T04:30:09.696Z,7.35
2023-02-12T04:31:25.541Z,7.44
2023-02-12T04:33:10.775Z,7.47
2023-02-12T04:34:49.898Z,7.43
2023-02-12T04:36:12.341Z,7.32
2023-02-12T04:37:39.464Z,7.38
2023-02-12T04:38:43.817Z,7.35
2023-02-12T04:39:48.827Z,7.39
2023-02-12T04:40:52.427Z,7.37
2023-02-12T04:41:58.431Z,7.36
2023-02-12T04:43:01.671Z,7.39
2023-02-12T04:44:18.480Z,7.39
2023-02-12T04:45:26.091Z,7.38
2023-02-12T04:46:28.645Z,7.40
2023-02-12T04:47:31.370Z,7.34
2023-02-12T04:48:34.926Z,7.33
2023-02-12T04:49:37.612Z,7.45
2023-02-12T04:50:43.766Z,7.47
2023-02-12T04:51:47.409Z,7.44
2023-02-12T04:52:50.062Z,7.35
2023-02-12T04:53:52.616Z,7.37
2023-02-12T04:54:55.141Z,7.39
2023-02-12T04:55:58.026Z,7.37
2023-02-12T04:57:00.975Z,7.36
2023-02-12T04:58:03.658Z,7.32
2023-02-12T04:59:06.298Z,7.32
2023-02-12T05:00:12.634Z,7.39
2023-02-12T05:01:15.372Z,7.36
2023-02-12T05:02:18.030Z,7.37
2023-02-12T05:03:20.580Z,7.40
2023-02-12T05:04:23.105Z,7.29
2023-02-12T05:05:26.445Z,7.27
2023-02-12T05:06:30.642Z,7.29
2023-02-12T05:07:33.155Z,7.20
2023-02-12T05:08:39.448Z,7.32
2023-02-12T05:09:42.310Z,7.25
2023-02-12T05:10:44.833Z,7.23
2023-02-12T05:11:47.441Z,7.21
2023-02-12T05:12:53.204Z,7.24
2023-02-12T05:13:55.846Z,7.21
2023-02-12T05:14:58.640Z,7.16
2023-02-12T05:16:04.818Z,7.22
2023-02-12T05:17:07.391Z,7.19
2023-02-12T05:18:10.157Z,7.20
2023-02-12T05:19:13.753Z,7.19
2023-02-12T05:20:16.407Z,7.10
2023-02-12T05:21:19.283Z,7.15
2023-02-12T05:22:22.046Z,7.15
2023-02-12T05:23:28.038Z,7.12
2023-02-12T05:24:30.677Z,7.17
2023-02-12T05:25:33.237Z,7.21
2023-02-12T05:26:36.691Z,7.17
2023-02-12T05:27:39.199Z,7.23
2023-02-12T05:28:42.081Z,7.22
2023-02-12T05:29:44.839Z,7.16
2023-02-12T05:30:47.412Z,7.09
2023-02-12T05:31:50.207Z,7.11
2023-02-12T05:32:52.768Z,7.12
2023-02-12T05:33:55.422Z,7.06
2023-02-12T05:34:57.926Z,7.01
2023-02-12T05:36:13.412Z,7.12
2023-02-12T05:37:16.054Z,7.02
2023-02-12T05:38:18.563Z,7.00
2023-02-12T05:39:20.964Z,7.00
2023-02-12T05:40:23.486Z,7.00
2023-02-12T05:41:26.856Z,7.04
2023-02-12T05:42:29.851Z,7.01
2023-02-12T05:43:32.488Z,6.95
2023-02-12T05:44:35.012Z,7.02
2023-02-12T05:45:38.256Z,7.03
2023-02-12T05:46:42.032Z,6.97
2023-02-12T05:47:44.619Z,7.00
2023-02-12T05:48:47.863Z,7.03
2023-02-12T05:49:50.381Z,7.04
2023-02-12T05:50:53.329Z,7.05
2023-02-12T05:51:55.902Z,7.10
2023-02-12T05:53:00.709Z,7.10
2023-02-12T05:54:06.237Z,7.13
2023-02-12T05:55:08.766Z,7.05
2023-02-12T05:56:11.398Z,7.07
2023-02-12T05:57:14.033Z,7.07
2023-02-12T05:58:16.914Z,7.07
2023-02-12T05:59:22.433Z,7.11
2023-02-12T06:00:25.201Z,7.07
2023-02-12T06:01:31.678Z,7.19
2023-02-12T06:02:35.323Z,7.10
2023-02-12T06:03:38.422Z,7.17
2023-02-12T06:04:41.282Z,7.12
2023-02-12T06:05:50.405Z,7.07
2023-02-12T06:06:54.508Z,7.16
2023-02-12T06:07:57.606Z,7.17
2023-02-12T06:09:01.858Z,7.16
2023-02-12T06:10:05.292Z,7.20
2023-02-12T06:11:13.219Z,7.19
2023-02-12T06:12:16.340Z,7.10
2023-02-12T06:13:19.458Z,7.05
2023-02-12T06:14:22.581Z,7.12
2023-02-12T06:15:25.702Z,7.01
2023-02-12T06:16:29.671Z,7.10
2023-02-12T06:17:34.708Z,7.17
2023-02-12T06:18:37.826Z,7.18
2023-02-12T06:19:40.954Z,7.11
2023-02-12T06:20:44.069Z,7.15
2023-02-12T06:21:47.562Z,7.20
2023-02-12T06:22:50.671Z,7.18
2023-02-12T06:23:54.162Z,7.21
2023-02-12T06:24:57.276Z,7.16
2023-02-12T06:26:00.414Z,7.09
2023-02-12T06:27:03.644Z,7.16
2023-02-12T06:28:06.785Z,7.13
2023-02-12T06:29:10.244Z,7.11
2023-02-12T06:30:13.965Z,7.11
2023-02-12T06:31:24.970Z,7.18
2023-02-12T06:32:28.375Z,7.13
2023-02-12T06:33:31.849Z,7.09
2023-02-12T06:34:35.693Z,7.06
2023-02-12T06:35:39.659Z,7.11
2023-02-12T06:36:45.298Z,7.09
2023-02-12T06:37:48.541Z,7.09
2023-02-12T06:38:52.140Z,7.10
2023-02-12T06:39:55.142Z,7.09
2023-02-12T06:41:01.506Z,7.12
2023-02-12T06:42:04.397Z,7.15
2023-02-12T06:43:07.270Z,7.18
2023-02-12T06:44:11.851Z,7.19
2023-02-12T06:45:14.720Z,7.20
2023-02-12T06:46:17.446Z,7.20
2023-02-12T06:47:20.124Z,7.20
2023-02-12T06:48:22.815Z,7.22
2023-02-12T06:49:25.281Z,7.17
2023-02-12T06:50:29.361Z,7.19
2023-02-12T06:51:32.495Z,7.19
2023-02-12T06:52:35.136Z,7.13
2023-02-12T06:53:38.428Z,7.15
2023-02-12T06:54:41.128Z,7.23
2023-02-12T06:55:43.695Z,7.25
2023-02-12T06:56:46.335Z,7.12
2023-02-12T06:57:49.180Z,7.18
2023-02-12T06:58:56.906Z,7.19
2023-02-12T06:59:59.436Z,7.15
2023-02-12T07:01:23.859Z,7.29
2023-02-12T07:02:26.421Z,7.19
2023-02-12T07:03:28.933Z,7.12
2023-02-12T07:04:31.463Z,7.20
2023-02-12T07:05:37.942Z,7.19
2023-02-12T07:06:40.588Z,7.22
2023-02-12T07:07:43.104Z,7.21
2023-02-12T07:08:45.623Z,7.18
2023-02-12T07:09:48.270Z,7.12
2023-02-12T07:10:51.031Z,7.09
2023-02-12T07:11:53.761Z,7.13
2023-02-12T07:12:56.328Z,7.08
2023-02-12T07:13:59.553Z,7.15
2023-02-12T07:15:02.189Z,7.09
2023-02-12T07:16:13.368Z,7.19
2023-02-12T07:17:15.967Z,7.22
2023-02-12T07:18:18.871Z,7.30
2023-02-12T07:19:21.871Z,7.25
2023-02-12T07:20:24.492Z,7.24
2023-02-12T07:21:27.039Z,7.21
2023-02-12T07:22:29.671Z,7.23
2023-02-12T07:23:33.155Z,7.24
2023-02-12T07:24:35.698Z,7.25
2023-02-12T07:25:38.699Z,7.21
2023-02-12T07:26:41.796Z,7.18
2023-02-12T07:27:44.315Z,7.27
2023-02-12T07:28:46.845Z,7.18
2023-02-12T07:29:49.599Z,7.20
2023-02-12T07:30:52.155Z,7.13
2023-02-12T07:31:54.683Z,7.18
2023-02-12T07:32:57.159Z,7.23
2023-02-12T07:34:00.886Z,7.19
2023-02-12T07:35:03.401Z,7.22
2023-02-12T07:36:09.043Z,7.29
2023-02-12T07:37:11.580Z,7.18
2023-02-12T07:38:14.206Z,7.23
2023-02-12T07:39:16.738Z,7.23
2023-02-12T07:40:19.367Z,7.21
2023-02-12T07:41:24.785Z,7.28
2023-02-12T07:42:29.353Z,7.24
2023-02-12T07:43:31.848Z,7.34
2023-02-12T07:44:34.611Z,7.28
2023-02-12T07:45:39.670Z,7.29
2023-02-12T07:46:49.151Z,7.26
2023-02-12T07:47:52.015Z,7.25
2023-02-12T07:48:54.782Z,7.21
2023-02-12T07:49:57.299Z,7.20
2023-02-12T07:51:07.386Z,7.39
2023-02-12T07:52:12.212Z,7.32
2023-02-12T07:53:15.799Z,7.24
2023-02-12T07:54:18.694Z,7.31
2023-02-12T07:55:21.309Z,7.28
2023-02-12T07:56:29.612Z,7.34
2023-02-12T07:57:32.233Z,7.35
2023-02-12T07:58:35.121Z,7.32
2023-02-12T07:59:37.761Z,7.33
2023-02-12T08:00:40.405Z,7.32
2023-02-12T08:01:46.879Z,7.31
2023-02-12T08:02:55.402Z,7.33
2023-02-12T08:04:00.739Z,7.32
2023-02-12T08:05:03.457Z,7.38
2023-02-12T08:06:13.055Z,7.36
2023-02-12T08:07:16.170Z,7.39
2023-02-12T08:08:19.302Z,7.41
2023-02-12T08:09:27.974Z,7.47
2023-02-12T08:10:32.500Z,7.47
2023-02-12T08:11:35.975Z,7.46
2023-02-12T08:12:39.103Z,7.45
2023-02-12T08:13:42.824Z,7.41
2023-02-12T08:14:45.946Z,7.44
2023-02-12T08:15:49.206Z,7.48
2023-02-12T08:16:52.875Z,7.46
2023-02-12T08:17:56.030Z,7.46
2023-02-12T08:19:10.736Z,7.43
2023-02-12T08:20:19.474Z,7.51
2023-02-12T08:21:27.832Z,7.47
2023-02-12T08:22:30.959Z,7.46
2023-02-12T08:23:34.798Z,7.52
2023-02-12T08:24:38.045Z,7.49
2023-02-12T08:25:41.280Z,7.46
2023-02-12T08:26:44.879Z,7.51
2023-02-12T08:27:48.003Z,7.46
2023-02-12T08:28:55.804Z,7.42
2023-02-12T08:29:58.930Z,7.38
2023-02-12T08:31:08.134Z,7.54
2023-02-12T08:32:14.404Z,7.46
2023-02-12T08:33:17.775Z,7.54
2023-02-12T08:34:24.031Z,7.55
2023-02-12T08:35:28.337Z,7.54
2023-02-12T08:36:38.418Z,7.61
2023-02-12T08:37:41.542Z,7.53
2023-02-12T08:38:46.714Z,7.61
2023-02-12T08:39:49.705Z,7.66
2023-02-12T08:40:52.971Z,7.62
2023-02-12T08:41:57.517Z,7.66
2023-02-12T08:43:00.645Z,7.73
2023-02-12T08:44:05.438Z,7.71
2023-02-12T08:45:08.910Z,7.63
2023-02-12T08:46:15.463Z,7.68
2023-02-12T08:47:18.158Z,7.78
2023-02-12T08:48:21.034Z,7.70
2023-02-12T08:49:26.437Z,7.82
2023-02-12T08:50:29.199Z,7.86
2023-02-12T08:51:36.057Z,7.95
2023-02-12T08:52:38.740Z,8.02
2023-02-12T08:53:44.849Z,8.05
2023-02-12T08:54:47.500Z,8.07
2023-02-12T08:55:50.802Z,8.03
2023-02-12T08:56:59.455Z,8.14
2023-02-12T08:58:03.089Z,7.94
2023-02-12T08:59:07.608Z,8.09
2023-02-12T09:00:10.893Z,8.04
2023-02-12T09:01:16.934Z,7.95
2023-02-12T09:02:19.421Z,7.98
2023-02-12T09:03:22.173Z,8.07
2023-02-12T09:04:27.113Z,8.05
2023-02-12T09:05:29.817Z,8.07
2023-02-12T09:06:34.500Z,8.14
2023-02-12T09:07:37.055Z,8.18
2023-02-12T09:08:40.174Z,8.20
2023-02-12T09:09:42.708Z,8.08
2023-02-12T09:10:47.017Z,8.16
2023-02-12T09:11:53.052Z,8.16
2023-02-12T09:12:55.541Z,8.08
2023-02-12T09:14:00.576Z,8.17
2023-02-12T09:15:03.700Z,8.18
2023-02-12T09:16:07.202Z,8.21
2023-02-12T09:17:09.830Z,8.13
2023-02-12T09:18:14.847Z,8.24
2023-02-12T09:19:19.306Z,8.28
2023-02-12T09:20:21.839Z,8.15
2023-02-12T09:21:24.704Z,8.11
2023-02-12T09:22:27.239Z,8.11
2023-02-12T09:23:30.109Z,8.06
2023-02-12T09:24:33.114Z,8.13
2023-02-12T09:25:40.672Z,8.07
2023-02-12T09:26:43.429Z,8.06
2023-02-12T09:27:45.948Z,8.12
2023-02-12T09:28:50.170Z,8.19
2023-02-12T09:29:52.812Z,8.18
2023-02-12T09:30:55.499Z,8.21
2023-02-12T09:31:58.230Z,8.16
2023-02-12T09:33:00.953Z,8.19
2023-02-12T09:34:07.554Z,8.27
2023-02-12T09:35:12.724Z,8.29
2023-02-12T09:36:17.037Z,8.17
2023-02-12T09:37:19.557Z,8.15
2023-02-12T09:38:22.075Z,8.13
2023-02-12T09:39:24.615Z,8.20
2023-02-12T09:40:47.412Z,8.13
2023-02-12T09:41:52.800Z,8.16
2023-02-12T09:43:29.042Z,8.10
2023-02-12T09:45:00.492Z,8.11
2023-02-12T09:46:14.664Z,8.24
2023-02-12T09:47:17.171Z,8.20
2023-02-12T09:48:53.771Z,8.22
2023-02-12T09:50:03.370Z,8.14
2023-02-12T09:51:08.776Z,8.20
2023-02-12T09:52:18.146Z,8.34
2023-02-12T09:53:25.096Z,8.19
2023-02-12T09:54:38.424Z,8.19
2023-02-12T09:55:41.190Z,8.25
2023-02-12T09:56:50.187Z,8.41
2023-02-12T09:57:54.905Z,8.34
2023-02-12T09:59:01.369Z,8.30
2023-02-12T10:00:24.873Z,8.28
2023-02-12T10:01:28.531Z,8.30
2023-02-12T10:02:31.365Z,8.19
2023-02-12T10:03:34.241Z,8.20
2023-02-12T10:04:37.044Z,8.16
2023-02-12T10:05:48.404Z,8.21
2023-02-12T10:07:18.045Z,8.22
2023-02-12T10:08:49.129Z,8.09
2023-02-12T10:10:21.180Z,8.16
2023-02-12T10:11:42.414Z,8.23
2023-02-12T10:12:58.506Z,8.17
2023-02-12T10:14:35.229Z,8.23
2023-02-12T10:15:59.921Z,8.26
2023-02-12T10:17:42.547Z,8.30
2023-02-12T10:19:06.813Z,8.42
2023-02-12T10:20:40.336Z,8.36
2023-02-12T10:21:58.270Z,8.38
2023-02-12T10:23:10.038Z,8.44
2023-02-12T10:24:44.724Z,8.43
2023-02-12T10:25:54.702Z,8.36
2023-02-12T10:27:03.681Z,8.20
2023-02-12T10:28:15.005Z,8.08
2023-02-12T10:29:22.520Z,8.20
2023-02-12T10:30:48.637Z,8.19
2023-02-12T10:33:08.486Z,8.24
2023-02-12T10:34:23.131Z,8.23
2023-02-12T10:35:26.976Z,8.19
2023-02-12T10:36:35.736Z,8.17
2023-02-12T10:37:52.666Z,8.04
2023-02-12T10:39:24.098Z,8.06
2023-02-12T10:40:33.214Z,8.08
2023-02-12T10:41:40.056Z,8.05
2023-02-12T10:42:46.789Z,7.96
2023-02-12T10:43:50.022Z,8.02
2023-02-12T10:44:53.144Z,8.01
2023-02-12T10:45:56.570Z,8.12
2023-02-12T10:46:59.505Z,8.12
2023-02-12T10:48:11.027Z,8.12
2023-02-12T10:49:16.912Z,8.16
2023-02-12T10:50:45.122Z,8.18
2023-02-12T10:52:11.205Z,8.23
2023-02-12T10:53:25.795Z,8.22
2023-02-12T10:54:38.448Z,8.17
2023-02-12T10:55:40.924Z,8.10
2023-02-12T10:56:43.680Z,8.19
2023-02-12T10:57:46.448Z,7.96
2023-02-12T10:59:01.841Z,8.07
2023-02-12T11:00:37.692Z,8.05
2023-02-12T11:01:42.197Z,8.11
2023-02-12T11:03:05.455Z,8.11
2023-02-12T11:04:40.594Z,8.22
2023-02-12T11:05:44.940Z,8.23
2023-02-12T11:06:59.666Z,8.41
2023-02-12T11:08:02.453Z,8.42
2023-02-12T11:09:28.148Z,8.54
2023-02-12T11:10:39.994Z,8.63
2023-02-12T11:11:42.863Z,8.67
2023-02-12T11:12:48.515Z,8.78
2023-02-12T11:13:58.467Z,8.84
2023-02-12T11:15:17.597Z,8.85
2023-02-12T11:16:37.985Z,9.05
2023-02-12T11:17:43.628Z,8.93
2023-02-12T11:18:57.421Z,9.09
2023-02-12T11:20:18.067Z,9.29
2023-02-12T11:21:23.582Z,9.49
2023-02-12T11:22:26.354Z,9.51
2023-02-12T11:23:39.907Z,9.97
2023-02-12T11:24:42.428Z,9.93
2023-02-12T11:25:56.705Z,10.00
2023-02-12T11:27:24.795Z,9.80
2023-02-12T11:28:28.744Z,9.60
2023-02-12T11:29:33.791Z,9.59
2023-02-12T11:30:36.792Z,9.52
2023-02-12T11:31:41.754Z,9.45
2023-02-12T11:32:44.597Z,9.49
2023-02-12T11:33:47.111Z,9.55
2023-02-12T11:35:24.194Z,9.39
2023-02-12T11:36:28.157Z,9.43
2023-02-12T11:37:36.569Z,9.45
2023-02-12T11:38:52.279Z,9.48
2023-02-12T11:39:54.797Z,9.41
2023-02-12T11:41:01.640Z,9.36
2023-02-12T11:42:22.694Z,9.21
2023-02-12T11:43:27.678Z,9.29
2023-02-12T11:44:37.890Z,9.25
2023-02-12T11:45:52.171Z,9.32
2023-02-12T11:47:02.275Z,9.42
2023-02-12T11:48:33.125Z,9.49
2023-02-12T11:49:43.997Z,9.47
2023-02-12T11:50:49.785Z,9.43
2023-02-12T11:51:53.255Z,9.36
2023-02-12T11:53:09.941Z,9.48
2023-02-12T11:54:20.509Z,9.40
2023-02-12T11:55:33.918Z,9.52
2023-02-12T11:56:45.953Z,9.28
2023-02-12T11:57:54.850Z,9.42
2023-02-12T11:59:12.825Z,9.42
2023-02-12T12:00:21.346Z,9.45
2023-02-12T12:01:34.934Z,9.32
2023-02-12T12:02:42.986Z,9.42
2023-02-12T12:04:03.609Z,9.38
2023-02-12T12:05:15.965Z,9.49
2023-02-12T12:06:34.084Z,9.45
2023-02-12T12:07:39.479Z,9.37
2023-02-12T12:08:48.479Z,9.49
2023-02-12T12:10:12.239Z,9.43
2023-02-12T12:11:47.047Z,9.25
2023-02-12T12:12:56.772Z,9.27
2023-02-12T12:14:13.807Z,9.08
2023-02-12T12:15:42.739Z,9.09
2023-02-12T12:17:11.890Z,9.29
2023-02-12T12:19:00.378Z,9.21
2023-02-12T12:20:26.538Z,9.15
2023-02-12T12:21:47.419Z,9.31
2023-02-12T12:23:01.347Z,9.39
2023-02-12T12:24:11.782Z,9.37
2023-02-12T12:25:32.785Z,9.39
2023-02-12T12:26:36.027Z,9.37
2023-02-12T12:28:10.489Z,9.33
2023-02-12T12:29:40.113Z,9.30
2023-02-12T12:31:09.506Z,9.27
2023-02-12T12:32:16.966Z,9.19
2023-02-12T12:33:25.717Z,9.31
2023-02-12T12:34:30.049Z,9.22
2023-02-12T12:35:54.734Z,9.41
2023-02-12T12:37:13.491Z,9.35
2023-02-12T12:38:55.611Z,9.48
2023-02-12T12:40:23.569Z,9.65
2023-02-12T12:41:41.338Z,9.63
2023-02-12T12:43:08.820Z,9.63
2023-02-12T12:44:30.668Z,9.62
2023-02-12T12:45:48.446Z,9.52
2023-02-12T12:47:11.825Z,9.56
2023-02-12T12:48:35.226Z,9.65
2023-02-12T12:49:47.826Z,9.50
2023-02-12T12:51:15.443Z,9.65
2023-02-12T12:52:27.910Z,9.76
2023-02-12T12:53:58.156Z,9.80
2023-02-12T12:55:03.793Z,9.78
2023-02-12T12:56:20.726Z,9.98
2023-02-12T12:57:42.805Z,10.18
2023-02-12T12:58:54.202Z,10.33
2023-02-12T13:00:06.732Z,10.36
2023-02-12T13:01:25.990Z,10.30
2023-02-12T13:02:38.502Z,10.13
2023-02-12T13:04:14.428Z,10.14
2023-02-12T13:05:48.328Z,10.18
2023-02-12T13:07:32.790Z,10.22
2023-02-12T13:09:13.112Z,10.21
2023-02-12T13:10:33.379Z,10.46
2023-02-12T13:12:06.596Z,10.59
2023-02-12T13:13:21.117Z,10.45
2023-02-12T13:14:30.591Z,10.68
2023-02-12T13:15:46.313Z,10.79
2023-02-12T13:17:14.038Z,10.71
2023-02-12T13:18:43.218Z,10.56
2023-02-12T13:19:55.105Z,10.58
2023-02-12T13:21:11.429Z,10.72
2023-02-12T13:22:23.783Z,10.72
2023-02-12T13:23:46.233Z,10.72
2023-02-12T13:25:16.950Z,10.62
2023-02-12T13:26:37.593Z,10.23
2023-02-12T13:27:42.523Z,10.23
2023-02-12T13:29:04.726Z,10.22
2023-02-12T13:30:19.835Z,10.20
2023-02-12T13:31:34.697Z,10.29
2023-02-12T13:32:45.635Z,10.28
2023-02-12T13:33:52.953Z,10.39
2023-02-12T13:34:57.279Z,10.42
2023-02-12T13:36:05.566Z,10.52
2023-02-12T13:37:25.718Z,10.57
2023-02-12T13:39:05.083Z,10.70
2023-02-12T13:40:14.326Z,10.83
2023-02-12T13:41:19.241Z,11.01
2023-02-12T13:42:27.424Z,11.06
2023-02-12T13:43:51.525Z,11.09
2023-02-12T13:45:01.611Z,10.89
2023-02-12T13:46:38.923Z,10.83
2023-02-12T13:47:59.569Z,10.78
2023-02-12T13:49:19.125Z,10.56
2023-02-12T13:50:33.307Z,10.54
2023-02-12T13:51:49.131Z,10.56
2023-02-12T13:53:02.453Z,10.34
2023-02-12T13:54:14.938Z,10.36
2023-02-12T13:55:20.336Z,10.26
2023-02-12T13:56:29.581Z,10.34
2023-02-12T13:57:32.217Z,10.27
2023-02-12T13:58:40.389Z,10.26
2023-02-12T13:59:49.264Z,10.16
2023-02-12T14:00:51.793Z,10.09
2023-02-12T14:01:54.349Z,10.09
2023-02-12T14:02:57.189Z,10.09
2023-02-12T14:04:16.036Z,10.13
2023-02-12T14:05:25.513Z,10.02
2023-02-12T14:06:29.114Z,9.97
2023-02-12T14:07:47.956Z,9.91
2023-02-12T14:08:51.917Z,9.99
2023-02-12T14:09:54.802Z,9.94
2023-02-12T14:11:07.892Z,10.03
2023-02-12T14:12:13.523Z,9.99
2023-02-12T14:13:21.804Z,10.09
2023-02-12T14:14:34.773Z,10.04
2023-02-12T14:15:41.514Z,9.99
2023-02-12T14:16:45.208Z,9.93
2023-02-12T14:18:01.540Z,10.04
2023-02-12T14:19:38.253Z,9.87
2023-02-12T14:20:42.454Z,9.81
2023-02-12T14:21:45.697Z,9.78
2023-02-12T14:22:48.835Z,9.79
2023-02-12T14:23:53.262Z,9.85
2023-02-12T14:24:58.189Z,9.79
2023-02-12T14:26:05.748Z,9.84
2023-02-12T14:27:40.786Z,9.85
2023-02-12T14:28:56.027Z,9.85
2023-02-12T14:30:08.157Z,9.89
2023-02-12T14:31:23.437Z,9.85
2023-02-12T14:32:55.551Z,9.98
2023-02-12T14:34:08.037Z,9.89
2023-02-12T14:35:35.878Z,9.94
2023-02-12T14:36:44.297Z,9.81
2023-02-12T14:37:47.521Z,9.79
2023-02-12T14:39:03.020Z,9.75
2023-02-12T14:40:40.928Z,9.83
2023-02-12T14:41:44.294Z,9.70
2023-02-12T14:42:56.668Z,9.81
2023-02-12T14:44:38.786Z,9.84
2023-02-12T14:45:41.899Z,9.82
2023-02-12T14:47:05.536Z,9.90
2023-02-12T14:48:47.059Z,9.90
2023-02-12T14:49:52.584Z,9.92
2023-02-12T14:50:56.183Z,9.97
2023-02-12T14:52:14.073Z,10.01
2023-02-12T14:53:31.840Z,9.99
2023-02-12T14:54:47.670Z,10.02
2023-02-12T14:55:52.160Z,9.90
2023-02-12T14:56:57.804Z,9.86
2023-02-12T14:58:20.226Z,9.93
2023-02-12T14:59:26.316Z,9.78
2023-02-12T15:00:36.562Z,9.75
2023-02-12T15:01:39.696Z,9.77
2023-02-12T15:02:45.165Z,9.86
2023-02-12T15:03:54.207Z,9.81
2023-02-12T15:05:12.479Z,9.81
2023-02-12T15:06:20.211Z,9.77
2023-02-12T15:07:51.928Z,9.78
2023-02-12T15:08:57.292Z,9.85
2023-02-12T15:10:29.865Z,9.82
2023-02-12T15:11:43.053Z,9.79
2023-02-12T15:13:05.371Z,9.79
2023-02-12T15:14:40.298Z,9.80
2023-02-12T15:16:00.299Z,9.74
2023-02-12T15:17:17.253Z,9.74
2023-02-12T15:18:28.434Z,9.75
2023-02-12T15:19:52.775Z,9.80
2023-02-12T15:21:01.513Z,9.71
2023-02-12T15:22:04.182Z,9.69
2023-02-12T15:23:41.979Z,9.75
2023-02-12T15:24:47.037Z,9.71
2023-02-12T15:25:51.362Z,9.71
2023-02-12T15:26:59.622Z,9.57
2023-02-12T15:28:07.670Z,9.62
2023-02-12T15:29:24.342Z,9.55